sensor_id;sensor_type;location;lat;lon;timestamp;P1;durP1;ratioP1;P2;durP2;ratioP2
27013;SDS011;14556;52.222;4.510;2024-03-08T00:00:31;25.10;;;12.30;;
27013;SDS011;14556;52.222;4.510;2024-03-08T00:02:59;21.70;;;10.50;;
27013;SDS011;14556;52.222;4.510;2024-03-08T00:05:29;22.03;;;11.80;;
27013;SDS011;14556;52.222;4.510;2024-03-08T00:07:56;26.83;;;11.57;;
27013;SDS011;14556;52.222;4.510;2024-03-08T00:10:23;23.27;;;11.60;;
27013;SDS011;14556;52.222;4.510;2024-03-08T00:12:53;23.97;;;11.17;;
27013;SDS011;14556;52.222;4.510;2024-03-08T00:15:20;33.53;;;12.83;;
27013;SDS011;14556;52.222;4.510;2024-03-08T00:17:49;22.07;;;11.40;;
27013;SDS011;14556;52.222;4.510;2024-03-08T00:20:16;25.80;;;11.37;;
27013;SDS011;14556;52.222;4.510;2024-03-08T00:22:46;22.23;;;11.80;;
27013;SDS011;14556;52.222;4.510;2024-03-08T00:25:12;25.80;;;11.70;;
27013;SDS011;14556;52.222;4.510;2024-03-08T00:27:39;30.33;;;12.33;;
27013;SDS011;14556;52.222;4.510;2024-03-08T00:30:05;26.67;;;12.10;;
27013;SDS011;14556;52.222;4.510;2024-03-08T00:32:33;24.87;;;12.27;;
27013;SDS011;14556;52.222;4.510;2024-03-08T00:35:00;23.53;;;11.50;;
27013;SDS011;14556;52.222;4.510;2024-03-08T00:37:27;21.80;;;10.87;;
27013;SDS011;14556;52.222;4.510;2024-03-08T00:39:53;21.23;;;10.43;;
27013;SDS011;14556;52.222;4.510;2024-03-08T00:42:20;22.10;;;10.70;;
27013;SDS011;14556;52.222;4.510;2024-03-08T00:44:47;27.03;;;11.50;;
27013;SDS011;14556;52.222;4.510;2024-03-08T00:47:14;22.27;;;11.93;;
27013;SDS011;14556;52.222;4.510;2024-03-08T00:49:41;23.60;;;12.20;;
27013;SDS011;14556;52.222;4.510;2024-03-08T00:52:08;21.37;;;10.67;;
27013;SDS011;14556;52.222;4.510;2024-03-08T00:54:34;25.63;;;10.97;;
27013;SDS011;14556;52.222;4.510;2024-03-08T00:57:02;21.23;;;11.30;;
27013;SDS011;14556;52.222;4.510;2024-03-08T00:59:29;26.90;;;12.33;;
27013;SDS011;14556;52.222;4.510;2024-03-08T01:01:59;28.13;;;12.53;;
27013;SDS011;14556;52.222;4.510;2024-03-08T01:04:27;22.67;;;11.17;;
27013;SDS011;14556;52.222;4.510;2024-03-08T01:06:56;23.40;;;12.07;;
27013;SDS011;14556;52.222;4.510;2024-03-08T01:09:22;27.27;;;12.00;;
27013;SDS011;14556;52.222;4.510;2024-03-08T01:11:49;19.53;;;10.50;;
27013;SDS011;14556;52.222;4.510;2024-03-08T01:14:16;23.53;;;10.37;;
27013;SDS011;14556;52.222;4.510;2024-03-08T01:16:43;25.07;;;11.53;;
27013;SDS011;14556;52.222;4.510;2024-03-08T01:19:09;25.23;;;12.13;;
27013;SDS011;14556;52.222;4.510;2024-03-08T01:21:36;21.03;;;11.03;;
27013;SDS011;14556;52.222;4.510;2024-03-08T01:24:03;23.80;;;11.67;;
27013;SDS011;14556;52.222;4.510;2024-03-08T01:26:30;22.53;;;11.30;;
27013;SDS011;14556;52.222;4.510;2024-03-08T01:28:57;17.87;;;10.43;;
27013;SDS011;14556;52.222;4.510;2024-03-08T01:31:23;25.40;;;11.53;;
27013;SDS011;14556;52.222;4.510;2024-03-08T01:33:50;24.10;;;10.80;;
27013;SDS011;14556;52.222;4.510;2024-03-08T01:36:16;25.23;;;11.33;;
27013;SDS011;14556;52.222;4.510;2024-03-08T01:38:45;22.30;;;11.40;;
27013;SDS011;14556;52.222;4.510;2024-03-08T01:41:12;25.83;;;11.37;;
27013;SDS011;14556;52.222;4.510;2024-03-08T01:43:39;21.97;;;10.80;;
27013;SDS011;14556;52.222;4.510;2024-03-08T01:46:08;22.17;;;12.23;;
27013;SDS011;14556;52.222;4.510;2024-03-08T01:48:35;25.87;;;10.73;;
27013;SDS011;14556;52.222;4.510;2024-03-08T01:51:05;24.43;;;12.17;;
27013;SDS011;14556;52.222;4.510;2024-03-08T01:53:34;19.87;;;9.73;;
27013;SDS011;14556;52.222;4.510;2024-03-08T01:56:02;25.13;;;10.90;;
27013;SDS011;14556;52.222;4.510;2024-03-08T01:58:29;24.40;;;11.37;;
27013;SDS011;14556;52.222;4.510;2024-03-08T02:00:56;27.17;;;11.27;;
27013;SDS011;14556;52.222;4.510;2024-03-08T02:03:23;22.60;;;11.73;;
27013;SDS011;14556;52.222;4.510;2024-03-08T02:05:49;23.97;;;11.70;;
27013;SDS011;14556;52.222;4.510;2024-03-08T02:08:18;23.03;;;11.63;;
27013;SDS011;14556;52.222;4.510;2024-03-08T02:10:45;22.13;;;9.97;;
27013;SDS011;14556;52.222;4.510;2024-03-08T02:13:11;26.03;;;11.53;;
27013;SDS011;14556;52.222;4.510;2024-03-08T02:15:54;22.93;;;11.43;;
27013;SDS011;14556;52.222;4.510;2024-03-08T02:18:21;23.03;;;11.30;;
27013;SDS011;14556;52.222;4.510;2024-03-08T02:20:58;26.90;;;12.30;;
27013;SDS011;14556;52.222;4.510;2024-03-08T02:23:25;18.97;;;10.47;;
27013;SDS011;14556;52.222;4.510;2024-03-08T02:25:53;26.33;;;12.73;;
27013;SDS011;14556;52.222;4.510;2024-03-08T02:28:19;20.10;;;10.63;;
27013;SDS011;14556;52.222;4.510;2024-03-08T02:30:46;22.97;;;10.90;;
27013;SDS011;14556;52.222;4.510;2024-03-08T02:33:13;23.00;;;10.83;;
27013;SDS011;14556;52.222;4.510;2024-03-08T02:35:42;25.43;;;12.40;;
27013;SDS011;14556;52.222;4.510;2024-03-08T02:38:14;22.43;;;11.20;;
27013;SDS011;14556;52.222;4.510;2024-03-08T02:40:49;26.20;;;11.60;;
27013;SDS011;14556;52.222;4.510;2024-03-08T02:43:17;23.50;;;12.13;;
27013;SDS011;14556;52.222;4.510;2024-03-08T02:45:45;20.60;;;10.20;;
27013;SDS011;14556;52.222;4.510;2024-03-08T02:48:13;22.33;;;10.57;;
27013;SDS011;14556;52.222;4.510;2024-03-08T02:50:40;23.63;;;11.87;;
27013;SDS011;14556;52.222;4.510;2024-03-08T02:53:08;22.30;;;12.00;;
27013;SDS011;14556;52.222;4.510;2024-03-08T02:55:37;21.80;;;10.53;;
27013;SDS011;14556;52.222;4.510;2024-03-08T02:58:03;21.87;;;11.57;;
27013;SDS011;14556;52.222;4.510;2024-03-08T03:00:30;26.53;;;11.67;;
27013;SDS011;14556;52.222;4.510;2024-03-08T03:02:59;21.07;;;11.37;;
27013;SDS011;14556;52.222;4.510;2024-03-08T03:05:26;22.07;;;11.13;;
27013;SDS011;14556;52.222;4.510;2024-03-08T03:07:53;25.97;;;12.13;;
27013;SDS011;14556;52.222;4.510;2024-03-08T03:10:19;22.33;;;11.73;;
27013;SDS011;14556;52.222;4.510;2024-03-08T03:12:48;28.43;;;12.50;;
27013;SDS011;14556;52.222;4.510;2024-03-08T03:15:17;22.63;;;11.83;;
27013;SDS011;14556;52.222;4.510;2024-03-08T03:17:47;22.20;;;11.63;;
27013;SDS011;14556;52.222;4.510;2024-03-08T03:20:14;25.80;;;11.97;;
27013;SDS011;14556;52.222;4.510;2024-03-08T03:22:41;24.50;;;11.20;;
27013;SDS011;14556;52.222;4.510;2024-03-08T03:25:09;22.90;;;11.40;;
27013;SDS011;14556;52.222;4.510;2024-03-08T03:27:36;21.83;;;11.73;;
27013;SDS011;14556;52.222;4.510;2024-03-08T03:30:03;25.70;;;11.97;;
27013;SDS011;14556;52.222;4.510;2024-03-08T03:32:46;22.87;;;11.43;;
27013;SDS011;14556;52.222;4.510;2024-03-08T03:35:14;25.97;;;12.40;;
27013;SDS011;14556;52.222;4.510;2024-03-08T03:37:41;29.03;;;13.20;;
27013;SDS011;14556;52.222;4.510;2024-03-08T03:40:12;26.10;;;11.67;;
27013;SDS011;14556;52.222;4.510;2024-03-08T03:42:39;23.43;;;12.10;;
27013;SDS011;14556;52.222;4.510;2024-03-08T03:45:06;24.23;;;11.67;;
27013;SDS011;14556;52.222;4.510;2024-03-08T03:47:32;21.20;;;11.43;;
27013;SDS011;14556;52.222;4.510;2024-03-08T03:50:00;22.93;;;12.63;;
27013;SDS011;14556;52.222;4.510;2024-03-08T03:52:28;23.83;;;11.90;;
27013;SDS011;14556;52.222;4.510;2024-03-08T03:54:55;25.73;;;11.70;;
27013;SDS011;14556;52.222;4.510;2024-03-08T03:57:21;23.57;;;11.97;;
27013;SDS011;14556;52.222;4.510;2024-03-08T03:59:49;24.57;;;11.60;;
27013;SDS011;14556;52.222;4.510;2024-03-08T04:02:17;25.83;;;10.93;;
27013;SDS011;14556;52.222;4.510;2024-03-08T04:04:44;21.80;;;11.27;;
27013;SDS011;14556;52.222;4.510;2024-03-08T04:07:12;28.27;;;12.63;;
27013;SDS011;14556;52.222;4.510;2024-03-08T04:09:38;20.97;;;11.43;;
27013;SDS011;14556;52.222;4.510;2024-03-08T04:12:05;22.70;;;11.53;;
27013;SDS011;14556;52.222;4.510;2024-03-08T04:14:32;21.60;;;11.73;;
27013;SDS011;14556;52.222;4.510;2024-03-08T04:16:59;26.23;;;12.43;;
27013;SDS011;14556;52.222;4.510;2024-03-08T04:19:25;28.23;;;12.53;;
27013;SDS011;14556;52.222;4.510;2024-03-08T04:21:52;21.33;;;11.57;;
27013;SDS011;14556;52.222;4.510;2024-03-08T04:24:19;23.60;;;11.73;;
27013;SDS011;14556;52.222;4.510;2024-03-08T04:26:46;27.00;;;13.07;;
27013;SDS011;14556;52.222;4.510;2024-03-08T04:29:12;25.83;;;11.50;;
27013;SDS011;14556;52.222;4.510;2024-03-08T04:31:40;25.77;;;12.70;;
27013;SDS011;14556;52.222;4.510;2024-03-08T04:34:07;24.43;;;11.83;;
27013;SDS011;14556;52.222;4.510;2024-03-08T04:36:34;23.57;;;11.83;;
27013;SDS011;14556;52.222;4.510;2024-03-08T04:39:01;24.83;;;12.27;;
27013;SDS011;14556;52.222;4.510;2024-03-08T04:41:29;24.97;;;12.63;;
27013;SDS011;14556;52.222;4.510;2024-03-08T04:44:00;23.13;;;12.47;;
27013;SDS011;14556;52.222;4.510;2024-03-08T04:46:27;25.73;;;12.13;;
27013;SDS011;14556;52.222;4.510;2024-03-08T04:48:55;22.43;;;12.87;;
27013;SDS011;14556;52.222;4.510;2024-03-08T04:51:24;23.43;;;12.30;;
27013;SDS011;14556;52.222;4.510;2024-03-08T04:53:51;26.47;;;12.60;;
27013;SDS011;14556;52.222;4.510;2024-03-08T04:56:17;26.20;;;12.23;;
27013;SDS011;14556;52.222;4.510;2024-03-08T04:58:45;24.07;;;11.97;;
27013;SDS011;14556;52.222;4.510;2024-03-08T05:01:13;25.50;;;12.97;;
27013;SDS011;14556;52.222;4.510;2024-03-08T05:03:39;20.97;;;12.27;;
27013;SDS011;14556;52.222;4.510;2024-03-08T05:06:06;23.90;;;12.63;;
27013;SDS011;14556;52.222;4.510;2024-03-08T05:08:33;21.67;;;11.77;;
27013;SDS011;14556;52.222;4.510;2024-03-08T05:11:00;22.93;;;12.43;;
27013;SDS011;14556;52.222;4.510;2024-03-08T05:13:30;26.03;;;12.30;;
27013;SDS011;14556;52.222;4.510;2024-03-08T05:15:57;29.83;;;12.50;;
27013;SDS011;14556;52.222;4.510;2024-03-08T05:18:25;28.97;;;13.73;;
27013;SDS011;14556;52.222;4.510;2024-03-08T05:20:51;24.40;;;12.33;;
27013;SDS011;14556;52.222;4.510;2024-03-08T05:23:18;23.70;;;11.33;;
27013;SDS011;14556;52.222;4.510;2024-03-08T05:25:46;22.93;;;13.10;;
27013;SDS011;14556;52.222;4.510;2024-03-08T05:28:15;30.37;;;13.93;;
27013;SDS011;14556;52.222;4.510;2024-03-08T05:30:43;26.10;;;14.00;;
27013;SDS011;14556;52.222;4.510;2024-03-08T05:33:09;24.90;;;13.03;;
27013;SDS011;14556;52.222;4.510;2024-03-08T05:35:37;22.87;;;12.57;;
27013;SDS011;14556;52.222;4.510;2024-03-08T05:38:04;25.80;;;12.67;;
27013;SDS011;14556;52.222;4.510;2024-03-08T05:40:30;21.87;;;11.83;;
27013;SDS011;14556;52.222;4.510;2024-03-08T05:42:58;27.70;;;13.00;;
27013;SDS011;14556;52.222;4.510;2024-03-08T05:45:28;23.23;;;12.37;;
27013;SDS011;14556;52.222;4.510;2024-03-08T05:47:55;25.93;;;12.33;;
27013;SDS011;14556;52.222;4.510;2024-03-08T05:50:22;21.53;;;11.53;;
27013;SDS011;14556;52.222;4.510;2024-03-08T05:52:48;21.73;;;11.93;;
27013;SDS011;14556;52.222;4.510;2024-03-08T05:55:16;19.70;;;12.30;;
27013;SDS011;14556;52.222;4.510;2024-03-08T05:57:42;26.53;;;12.43;;
27013;SDS011;14556;52.222;4.510;2024-03-08T06:00:09;26.23;;;12.83;;
27013;SDS011;14556;52.222;4.510;2024-03-08T06:02:38;28.53;;;12.93;;
27013;SDS011;14556;52.222;4.510;2024-03-08T06:05:08;31.80;;;14.17;;
27013;SDS011;14556;52.222;4.510;2024-03-08T06:07:35;22.50;;;13.10;;
27013;SDS011;14556;52.222;4.510;2024-03-08T06:10:02;24.90;;;12.70;;
27013;SDS011;14556;52.222;4.510;2024-03-08T06:12:32;25.93;;;12.37;;
27013;SDS011;14556;52.222;4.510;2024-03-08T06:14:59;26.13;;;13.10;;
27013;SDS011;14556;52.222;4.510;2024-03-08T06:17:26;25.00;;;13.13;;
27013;SDS011;14556;52.222;4.510;2024-03-08T06:19:53;24.83;;;13.10;;
27013;SDS011;14556;52.222;4.510;2024-03-08T06:22:20;23.13;;;11.77;;
27013;SDS011;14556;52.222;4.510;2024-03-08T06:24:47;23.80;;;12.80;;
27013;SDS011;14556;52.222;4.510;2024-03-08T06:27:13;22.73;;;12.67;;
27013;SDS011;14556;52.222;4.510;2024-03-08T06:29:40;26.97;;;12.97;;
27013;SDS011;14556;52.222;4.510;2024-03-08T06:32:07;27.67;;;12.40;;
27013;SDS011;14556;52.222;4.510;2024-03-08T06:34:36;22.80;;;12.53;;
27013;SDS011;14556;52.222;4.510;2024-03-08T06:37:03;27.57;;;13.93;;
27013;SDS011;14556;52.222;4.510;2024-03-08T06:39:31;24.77;;;12.87;;
27013;SDS011;14556;52.222;4.510;2024-03-08T06:41:58;26.90;;;13.70;;
27013;SDS011;14556;52.222;4.510;2024-03-08T06:44:25;26.07;;;12.17;;
27013;SDS011;14556;52.222;4.510;2024-03-08T06:46:52;29.67;;;13.77;;
27013;SDS011;14556;52.222;4.510;2024-03-08T06:49:23;26.83;;;12.43;;
27013;SDS011;14556;52.222;4.510;2024-03-08T06:51:50;26.63;;;13.37;;
27013;SDS011;14556;52.222;4.510;2024-03-08T06:54:19;26.27;;;12.13;;
27013;SDS011;14556;52.222;4.510;2024-03-08T06:56:46;29.53;;;13.33;;
27013;SDS011;14556;52.222;4.510;2024-03-08T06:59:12;24.30;;;12.33;;
27013;SDS011;14556;52.222;4.510;2024-03-08T07:01:39;26.90;;;13.10;;
27013;SDS011;14556;52.222;4.510;2024-03-08T07:04:05;23.87;;;13.83;;
27013;SDS011;14556;52.222;4.510;2024-03-08T07:06:32;27.77;;;12.97;;
27013;SDS011;14556;52.222;4.510;2024-03-08T07:09:01;27.40;;;13.23;;
27013;SDS011;14556;52.222;4.510;2024-03-08T07:11:28;30.60;;;13.47;;
27013;SDS011;14556;52.222;4.510;2024-03-08T07:13:55;26.33;;;13.67;;
27013;SDS011;14556;52.222;4.510;2024-03-08T07:16:21;27.00;;;14.30;;
27013;SDS011;14556;52.222;4.510;2024-03-08T07:18:48;26.73;;;12.63;;
27013;SDS011;14556;52.222;4.510;2024-03-08T07:21:19;25.53;;;13.20;;
27013;SDS011;14556;52.222;4.510;2024-03-08T07:23:46;22.40;;;12.53;;
27013;SDS011;14556;52.222;4.510;2024-03-08T07:26:20;32.00;;;13.53;;
27013;SDS011;14556;52.222;4.510;2024-03-08T07:28:46;23.43;;;13.30;;
27013;SDS011;14556;52.222;4.510;2024-03-08T07:31:13;29.17;;;13.03;;
27013;SDS011;14556;52.222;4.510;2024-03-08T07:33:52;29.13;;;13.23;;
27013;SDS011;14556;52.222;4.510;2024-03-08T07:36:22;20.63;;;11.73;;
27013;SDS011;14556;52.222;4.510;2024-03-08T07:38:48;24.20;;;12.93;;
27013;SDS011;14556;52.222;4.510;2024-03-08T07:41:16;26.37;;;14.67;;
27013;SDS011;14556;52.222;4.510;2024-03-08T07:43:43;29.97;;;14.37;;
27013;SDS011;14556;52.222;4.510;2024-03-08T07:46:09;25.87;;;13.20;;
27013;SDS011;14556;52.222;4.510;2024-03-08T07:48:36;25.53;;;13.20;;
27013;SDS011;14556;52.222;4.510;2024-03-08T07:51:04;30.37;;;13.43;;
27013;SDS011;14556;52.222;4.510;2024-03-08T07:53:33;27.87;;;14.10;;
27013;SDS011;14556;52.222;4.510;2024-03-08T07:55:59;28.30;;;13.43;;
27013;SDS011;14556;52.222;4.510;2024-03-08T07:58:27;25.13;;;13.80;;
27013;SDS011;14556;52.222;4.510;2024-03-08T08:00:55;25.57;;;13.87;;
27013;SDS011;14556;52.222;4.510;2024-03-08T08:03:21;26.37;;;13.23;;
27013;SDS011;14556;52.222;4.510;2024-03-08T08:05:48;32.07;;;15.30;;
27013;SDS011;14556;52.222;4.510;2024-03-08T08:08:15;25.43;;;12.63;;
27013;SDS011;14556;52.222;4.510;2024-03-08T08:10:41;22.13;;;12.13;;
27013;SDS011;14556;52.222;4.510;2024-03-08T08:13:08;25.50;;;13.53;;
27013;SDS011;14556;52.222;4.510;2024-03-08T08:15:35;26.47;;;14.30;;
27013;SDS011;14556;52.222;4.510;2024-03-08T08:18:01;29.83;;;14.17;;
27013;SDS011;14556;52.222;4.510;2024-03-08T08:20:33;26.17;;;13.93;;
27013;SDS011;14556;52.222;4.510;2024-03-08T08:22:59;30.83;;;13.77;;
27013;SDS011;14556;52.222;4.510;2024-03-08T08:25:26;26.53;;;13.53;;
27013;SDS011;14556;52.222;4.510;2024-03-08T08:27:53;23.90;;;12.83;;
27013;SDS011;14556;52.222;4.510;2024-03-08T08:30:20;23.30;;;12.63;;
27013;SDS011;14556;52.222;4.510;2024-03-08T08:32:46;24.03;;;13.63;;
27013;SDS011;14556;52.222;4.510;2024-03-08T08:35:15;25.73;;;12.67;;
27013;SDS011;14556;52.222;4.510;2024-03-08T08:37:41;26.23;;;13.33;;
27013;SDS011;14556;52.222;4.510;2024-03-08T08:40:08;25.60;;;13.77;;
27013;SDS011;14556;52.222;4.510;2024-03-08T08:42:41;25.70;;;12.73;;
27013;SDS011;14556;52.222;4.510;2024-03-08T08:45:08;32.37;;;14.37;;
27013;SDS011;14556;52.222;4.510;2024-03-08T08:47:42;27.07;;;13.07;;
27013;SDS011;14556;52.222;4.510;2024-03-08T08:50:09;28.77;;;14.47;;
27013;SDS011;14556;52.222;4.510;2024-03-08T08:52:38;23.73;;;12.20;;
27013;SDS011;14556;52.222;4.510;2024-03-08T08:55:06;25.00;;;14.20;;
27013;SDS011;14556;52.222;4.510;2024-03-08T08:57:32;30.47;;;15.10;;
27013;SDS011;14556;52.222;4.510;2024-03-08T08:59:59;25.23;;;13.83;;
27013;SDS011;14556;52.222;4.510;2024-03-08T09:02:27;27.03;;;13.00;;
27013;SDS011;14556;52.222;4.510;2024-03-08T09:04:53;25.93;;;13.83;;
27013;SDS011;14556;52.222;4.510;2024-03-08T09:07:20;22.50;;;11.97;;
27013;SDS011;14556;52.222;4.510;2024-03-08T09:09:47;28.40;;;14.00;;
27013;SDS011;14556;52.222;4.510;2024-03-08T09:12:13;25.30;;;13.93;;
27013;SDS011;14556;52.222;4.510;2024-03-08T09:14:40;26.83;;;13.67;;
27013;SDS011;14556;52.222;4.510;2024-03-08T09:17:07;23.90;;;13.20;;
27013;SDS011;14556;52.222;4.510;2024-03-08T09:19:35;25.20;;;12.67;;
27013;SDS011;14556;52.222;4.510;2024-03-08T09:22:03;25.03;;;13.00;;
27013;SDS011;14556;52.222;4.510;2024-03-08T09:24:30;27.97;;;14.60;;
27013;SDS011;14556;52.222;4.510;2024-03-08T09:26:58;30.00;;;14.57;;
27013;SDS011;14556;52.222;4.510;2024-03-08T09:29:25;28.77;;;13.43;;
27013;SDS011;14556;52.222;4.510;2024-03-08T09:31:51;24.37;;;13.80;;
27013;SDS011;14556;52.222;4.510;2024-03-08T09:34:18;25.03;;;13.20;;
27013;SDS011;14556;52.222;4.510;2024-03-08T09:36:50;22.07;;;12.60;;
27013;SDS011;14556;52.222;4.510;2024-03-08T09:39:18;25.17;;;13.67;;
27013;SDS011;14556;52.222;4.510;2024-03-08T09:41:48;24.77;;;12.90;;
27013;SDS011;14556;52.222;4.510;2024-03-08T09:44:15;27.37;;;12.97;;
27013;SDS011;14556;52.222;4.510;2024-03-08T09:46:42;23.63;;;13.47;;
27013;SDS011;14556;52.222;4.510;2024-03-08T09:49:09;21.87;;;11.87;;
27013;SDS011;14556;52.222;4.510;2024-03-08T09:51:38;27.17;;;14.13;;
27013;SDS011;14556;52.222;4.510;2024-03-08T09:54:08;21.90;;;12.37;;
27013;SDS011;14556;52.222;4.510;2024-03-08T09:56:45;26.93;;;13.90;;
27013;SDS011;14556;52.222;4.510;2024-03-08T09:59:13;28.50;;;13.20;;
27013;SDS011;14556;52.222;4.510;2024-03-08T10:01:49;24.43;;;12.67;;
27013;SDS011;14556;52.222;4.510;2024-03-08T10:04:15;26.17;;;13.37;;
27013;SDS011;14556;52.222;4.510;2024-03-08T10:06:44;27.23;;;14.70;;
27013;SDS011;14556;52.222;4.510;2024-03-08T10:09:14;24.90;;;12.53;;
27013;SDS011;14556;52.222;4.510;2024-03-08T10:11:40;25.30;;;12.73;;
27013;SDS011;14556;52.222;4.510;2024-03-08T10:14:07;19.20;;;12.03;;
27013;SDS011;14556;52.222;4.510;2024-03-08T10:16:34;26.83;;;14.77;;
27013;SDS011;14556;52.222;4.510;2024-03-08T10:19:01;24.10;;;13.00;;
27013;SDS011;14556;52.222;4.510;2024-03-08T10:21:28;25.63;;;15.00;;
27013;SDS011;14556;52.222;4.510;2024-03-08T10:23:55;22.90;;;12.80;;
27013;SDS011;14556;52.222;4.510;2024-03-08T10:26:22;27.93;;;14.40;;
27013;SDS011;14556;52.222;4.510;2024-03-08T10:28:48;24.63;;;14.17;;
27013;SDS011;14556;52.222;4.510;2024-03-08T10:31:18;22.93;;;13.17;;
27013;SDS011;14556;52.222;4.510;2024-03-08T10:33:46;22.67;;;12.23;;
27013;SDS011;14556;52.222;4.510;2024-03-08T10:36:14;27.07;;;13.53;;
27013;SDS011;14556;52.222;4.510;2024-03-08T10:38:41;24.47;;;12.40;;
27013;SDS011;14556;52.222;4.510;2024-03-08T10:41:09;22.03;;;12.27;;
27013;SDS011;14556;52.222;4.510;2024-03-08T10:43:59;25.07;;;14.23;;
27013;SDS011;14556;52.222;4.510;2024-03-08T10:49:12;22.43;;;12.70;;
27013;SDS011;14556;52.222;4.510;2024-03-08T10:51:40;23.43;;;11.97;;
27013;SDS011;14556;52.222;4.510;2024-03-08T10:54:08;26.57;;;12.87;;
27013;SDS011;14556;52.222;4.510;2024-03-08T10:56:36;24.23;;;12.73;;
27013;SDS011;14556;52.222;4.510;2024-03-08T10:59:03;23.27;;;13.00;;
27013;SDS011;14556;52.222;4.510;2024-03-08T11:01:30;22.27;;;12.53;;
27013;SDS011;14556;52.222;4.510;2024-03-08T11:03:57;21.80;;;12.67;;
27013;SDS011;14556;52.222;4.510;2024-03-08T11:08:58;19.90;;;12.00;;
27013;SDS011;14556;52.222;4.510;2024-03-08T11:11:26;18.97;;;10.50;;
27013;SDS011;14556;52.222;4.510;2024-03-08T11:14:00;22.60;;;11.70;;
27013;SDS011;14556;52.222;4.510;2024-03-08T11:18:58;24.60;;;13.27;;
27013;SDS011;14556;52.222;4.510;2024-03-08T11:21:31;24.57;;;12.27;;
27013;SDS011;14556;52.222;4.510;2024-03-08T11:24:00;19.17;;;10.80;;
27013;SDS011;14556;52.222;4.510;2024-03-08T11:26:27;20.93;;;11.30;;
27013;SDS011;14556;52.222;4.510;2024-03-08T11:28:53;20.73;;;11.97;;
27013;SDS011;14556;52.222;4.510;2024-03-08T11:31:22;20.53;;;12.07;;
27013;SDS011;14556;52.222;4.510;2024-03-08T11:33:49;21.30;;;11.73;;
27013;SDS011;14556;52.222;4.510;2024-03-08T11:36:20;22.27;;;11.50;;
27013;SDS011;14556;52.222;4.510;2024-03-08T11:38:54;21.83;;;11.40;;
27013;SDS011;14556;52.222;4.510;2024-03-08T11:41:24;18.57;;;11.60;;
27013;SDS011;14556;52.222;4.510;2024-03-08T11:44:01;17.93;;;10.43;;
27013;SDS011;14556;52.222;4.510;2024-03-08T11:46:27;19.63;;;12.27;;
27013;SDS011;14556;52.222;4.510;2024-03-08T11:48:54;18.53;;;9.73;;
27013;SDS011;14556;52.222;4.510;2024-03-08T11:51:22;20.27;;;11.43;;
27013;SDS011;14556;52.222;4.510;2024-03-08T11:53:50;20.40;;;11.40;;
27013;SDS011;14556;52.222;4.510;2024-03-08T11:56:16;17.73;;;10.07;;
27013;SDS011;14556;52.222;4.510;2024-03-08T11:58:52;18.70;;;11.00;;
27013;SDS011;14556;52.222;4.510;2024-03-08T12:01:19;19.90;;;10.70;;
27013;SDS011;14556;52.222;4.510;2024-03-08T12:03:48;19.17;;;10.70;;
27013;SDS011;14556;52.222;4.510;2024-03-08T12:06:18;20.97;;;11.47;;
27013;SDS011;14556;52.222;4.510;2024-03-08T12:08:45;19.20;;;11.13;;
27013;SDS011;14556;52.222;4.510;2024-03-08T12:11:15;18.17;;;10.40;;
27013;SDS011;14556;52.222;4.510;2024-03-08T12:13:42;17.33;;;10.60;;
27013;SDS011;14556;52.222;4.510;2024-03-08T12:16:08;20.27;;;11.17;;
27013;SDS011;14556;52.222;4.510;2024-03-08T12:18:37;18.73;;;10.90;;
27013;SDS011;14556;52.222;4.510;2024-03-08T12:21:04;17.27;;;10.17;;
27013;SDS011;14556;52.222;4.510;2024-03-08T12:23:34;18.67;;;11.23;;
27013;SDS011;14556;52.222;4.510;2024-03-08T12:26:13;15.20;;;10.10;;
27013;SDS011;14556;52.222;4.510;2024-03-08T12:28:40;17.97;;;10.37;;
27013;SDS011;14556;52.222;4.510;2024-03-08T12:31:11;19.50;;;11.30;;
27013;SDS011;14556;52.222;4.510;2024-03-08T12:33:51;21.20;;;10.70;;
27013;SDS011;14556;52.222;4.510;2024-03-08T12:36:23;21.23;;;10.60;;
27013;SDS011;14556;52.222;4.510;2024-03-08T12:38:50;18.37;;;10.10;;
27013;SDS011;14556;52.222;4.510;2024-03-08T12:41:17;18.13;;;10.30;;
27013;SDS011;14556;52.222;4.510;2024-03-08T12:43:47;18.67;;;9.97;;
27013;SDS011;14556;52.222;4.510;2024-03-08T12:46:15;16.90;;;9.80;;
27013;SDS011;14556;52.222;4.510;2024-03-08T12:48:44;18.73;;;10.60;;
27013;SDS011;14556;52.222;4.510;2024-03-08T12:51:13;16.23;;;9.90;;
27013;SDS011;14556;52.222;4.510;2024-03-08T12:53:40;16.03;;;10.00;;
27013;SDS011;14556;52.222;4.510;2024-03-08T12:56:14;17.93;;;9.50;;
27013;SDS011;14556;52.222;4.510;2024-03-08T12:58:43;20.50;;;10.30;;
27013;SDS011;14556;52.222;4.510;2024-03-08T13:01:10;16.97;;;9.40;;
27013;SDS011;14556;52.222;4.510;2024-03-08T13:03:38;16.40;;;9.63;;
27013;SDS011;14556;52.222;4.510;2024-03-08T13:06:04;20.07;;;9.83;;
27013;SDS011;14556;52.222;4.510;2024-03-08T13:08:34;14.20;;;9.57;;
27013;SDS011;14556;52.222;4.510;2024-03-08T13:11:02;19.53;;;11.37;;
27013;SDS011;14556;52.222;4.510;2024-03-08T13:13:29;18.33;;;9.43;;
27013;SDS011;14556;52.222;4.510;2024-03-08T13:15:56;18.90;;;10.10;;
27013;SDS011;14556;52.222;4.510;2024-03-08T13:18:23;16.93;;;10.07;;
27013;SDS011;14556;52.222;4.510;2024-03-08T13:20:49;15.17;;;9.40;;
27013;SDS011;14556;52.222;4.510;2024-03-08T13:23:18;13.30;;;8.33;;
27013;SDS011;14556;52.222;4.510;2024-03-08T13:25:44;15.73;;;9.00;;
27013;SDS011;14556;52.222;4.510;2024-03-08T13:28:14;17.73;;;9.10;;
27013;SDS011;14556;52.222;4.510;2024-03-08T13:30:41;14.87;;;8.90;;
27013;SDS011;14556;52.222;4.510;2024-03-08T13:33:08;16.27;;;9.53;;
27013;SDS011;14556;52.222;4.510;2024-03-08T13:35:35;16.87;;;9.03;;
27013;SDS011;14556;52.222;4.510;2024-03-08T13:38:04;14.90;;;8.93;;
27013;SDS011;14556;52.222;4.510;2024-03-08T13:40:31;13.83;;;8.57;;
27013;SDS011;14556;52.222;4.510;2024-03-08T13:42:58;14.43;;;8.87;;
27013;SDS011;14556;52.222;4.510;2024-03-08T13:45:27;15.47;;;8.30;;
27013;SDS011;14556;52.222;4.510;2024-03-08T13:47:54;14.83;;;8.70;;
27013;SDS011;14556;52.222;4.510;2024-03-08T13:50:21;15.67;;;9.40;;
27013;SDS011;14556;52.222;4.510;2024-03-08T13:52:48;13.10;;;8.30;;
27013;SDS011;14556;52.222;4.510;2024-03-08T13:55:20;17.30;;;8.73;;
27013;SDS011;14556;52.222;4.510;2024-03-08T13:57:48;15.63;;;9.07;;
27013;SDS011;14556;52.222;4.510;2024-03-08T14:00:15;14.20;;;9.03;;
27013;SDS011;14556;52.222;4.510;2024-03-08T14:02:41;15.53;;;9.10;;
27013;SDS011;14556;52.222;4.510;2024-03-08T14:05:09;14.53;;;8.53;;
27013;SDS011;14556;52.222;4.510;2024-03-08T14:07:36;16.20;;;8.97;;
27013;SDS011;14556;52.222;4.510;2024-03-08T14:10:02;14.50;;;8.50;;
27013;SDS011;14556;52.222;4.510;2024-03-08T14:12:29;16.10;;;9.80;;
27013;SDS011;14556;52.222;4.510;2024-03-08T14:14:56;15.23;;;8.90;;
27013;SDS011;14556;52.222;4.510;2024-03-08T14:17:26;16.37;;;9.63;;
27013;SDS011;14556;52.222;4.510;2024-03-08T14:19:53;17.67;;;9.53;;
27013;SDS011;14556;52.222;4.510;2024-03-08T14:22:21;18.13;;;9.57;;
27013;SDS011;14556;52.222;4.510;2024-03-08T14:24:47;19.20;;;9.70;;
27013;SDS011;14556;52.222;4.510;2024-03-08T14:27:14;16.97;;;9.77;;
27013;SDS011;14556;52.222;4.510;2024-03-08T14:29:41;17.07;;;9.47;;
27013;SDS011;14556;52.222;4.510;2024-03-08T14:32:09;17.57;;;9.37;;
27013;SDS011;14556;52.222;4.510;2024-03-08T14:34:39;21.70;;;10.60;;